Atalanti — 5BYY2 — position and weather

sailwx.info

Track history (hours):
 
Tides and Currents Weather Stations Pressure Air Temp Water Temp Dewpoint Dewpoint Depression Visibility Wind Speed Wind Dir Waves Ship Positions

Atalanti

Last reported at 2014-Sep-18 01:33 UTC. Time now 2014-Sep-18 09:42 UTC.
Position N 38°16' W 009°36'.

Length 97 m; draft 4.1 m.

Type: Other ship. MMSI: 212279000.

Date/timePositionNaut miles runAvg speedWind from/ knotsBaromVisibWave heightAir tempDewpointWater temp
2014-Sep-18 01:33N 38°16' W 009°36'9 8.5
2014-Sep-18 00:33N 38°08' W 009°31'8 8.2
2014-Sep-17 23:33N 38°01' W 009°26'8 8.0
2014-Sep-17 22:33N 37°54' W 009°22'8 8.2
2014-Sep-17 21:33N 37°46' W 009°18'8 8.1
2014-Sep-17 20:33N 37°39' W 009°13'8 8.2
2014-Sep-17 19:33N 37°31' W 009°09'8 8.1
2014-Sep-17 18:33N 37°23' W 009°11'9 8.3
2014-Sep-17 17:31N 37°16' W 009°16'50 6.2
2014-Sep-17 09:27N 36°37' W 008°37'8 6.8
2014-Sep-17 08:15N 36°34' W 008°27'  
2014-Sep-15 03:04N 36°40' W 001°06'5 7.4
2014-Sep-15 02:24N 36°42' W 000°60'14 7.1
2014-Sep-15 00:23N 36°46' W 000°43'23 7.3
2014-Sep-14 21:15N 36°52' W 000°15'6 7.8
2014-Sep-14 20:32N 36°53' W 000°08'8 8.0
2014-Sep-14 19:33N 36°55' E 000°01'8 8.4
2014-Sep-14 18:33N 36°57' E 000°11'8 8.2
2014-Sep-14 17:33N 36°59' E 000°21'8 8.1
2014-Sep-14 16:34N 37°02' E 000°31'8 7.7
2014-Sep-14 15:33N 37°04' E 000°40'7 7.3
2014-Sep-14 14:34N 37°06' E 000°49'7 6.9
2014-Sep-14 13:32N 37°07' E 000°58'7 7.0
2014-Sep-14 12:32N 37°09' E 001°06'7 7.5
2014-Sep-14 11:33N 37°11' E 001°15'8 7.9
2014-Sep-14 10:33N 37°13' E 001°24'9 8.8
2014-Sep-14 09:33N 37°16' E 001°35'9 9.0
2014-Sep-14 08:33N 37°18' E 001°46'10 9.6
2014-Sep-14 07:32N 37°21' E 001°58'10 9.7
2014-Sep-14 06:33N 37°23' E 002°09'10 9.9
2014-Sep-14 05:32N 37°26' E 002°22'74 9.3
2014-Sep-13 21:33N 37°45' E 003°52'9 9.4
2014-Sep-13 20:34N 37°48' E 004°03'200 8.5
2014-Sep-12 21:04N 38°40' E 008°09'7 8.9
2014-Sep-12 20:14N 38°42' E 008°18'8 8.9
2014-Sep-12 19:18N 38°45' E 008°28'7 8.8
2014-Sep-12 18:31N 38°46' E 008°37'8 8.4
2014-Sep-12 17:33N 38°48' E 008°47'8 8.0
2014-Sep-12 16:32N 38°51' E 008°57'8 7.9
2014-Sep-12 15:33N 38°53' E 009°07'8 8.1
2014-Sep-12 14:33N 38°55' E 009°17'8 8.1
2014-Sep-12 13:33N 38°57' E 009°27'8 7.9
2014-Sep-12 12:33N 38°60' E 009°36'8 8.1
2014-Sep-12 11:33N 39°03' E 009°46'196 8.5
2014-Sep-11 12:25N 40°29' E 013°35'7 8.3
2014-Sep-11 11:31N 40°32' E 013°44'8 8.4
2014-Sep-11 10:33N 40°36' E 013°53'8 8.4
2014-Sep-11 09:34N 40°40' E 014°03'8 7.7
2014-Sep-11 08:33N 40°47' E 014°07'3 0.2
2014-Sep-10 19:30N 40°50' E 014°06'0 0.0
2014-Sep-10 14:06N 40°50' E 014°06'0 0.0
2014-Sep-10 13:30N 40°50' E 014°06'0 0.0
2014-Sep-10 12:30N 40°50' E 014°06'0 0.0
2014-Sep-10 11:30N 40°50' E 014°06'0 0.0
2014-Sep-10 10:30N 40°50' E 014°06'0 0.0
2014-Sep-10 08:18N 40°50' E 014°06'0 0.0
2014-Sep-09 19:29N 40°50' E 014°06'0 0.0
2014-Sep-09 13:29N 40°50' E 014°06'0 0.0
2014-Sep-09 12:29N 40°50' E 014°06'0 0.0
2014-Sep-09 11:30N 40°50' E 014°06'0 0.0
2014-Sep-08 19:29N 40°50' E 014°06'0 0.0
2014-Sep-08 18:29N 40°50' E 014°06'0 0.0
2014-Sep-08 09:23N 40°50' E 014°06'0 0.0
2014-Sep-08 08:30N 40°50' E 014°06'  
Track history (hours):
 
Tides and Currents Weather Stations Pressure Air Temp Water Temp Dewpoint Dewpoint Depression Visibility Wind Speed Wind Dir Waves Ship Positions

Atalanti

Last reported at 2014-Sep-18 01:33 UTC. Time now 2014-Sep-18 09:42 UTC.
Position N 38°16' W 009°36'.

Length 97 m; draft 4.1 m.

Type: Other ship. MMSI: 212279000.

Date/timePositionNaut miles runAvg speedWind from/ knotsBaromVisibWave heightAir tempDewpointWater temp
2014-Sep-18 01:33N 38°16' W 009°36'9 8.5
2014-Sep-18 00:33N 38°08' W 009°31'8 8.2
2014-Sep-17 23:33N 38°01' W 009°26'8 8.0
2014-Sep-17 22:33N 37°54' W 009°22'8 8.2
2014-Sep-17 21:33N 37°46' W 009°18'8 8.1
2014-Sep-17 20:33N 37°39' W 009°13'8 8.2
2014-Sep-17 19:33N 37°31' W 009°09'8 8.1
2014-Sep-17 18:33N 37°23' W 009°11'9 8.3
2014-Sep-17 17:31N 37°16' W 009°16'50 6.2
2014-Sep-17 09:27N 36°37' W 008°37'8 6.8
2014-Sep-17 08:15N 36°34' W 008°27'  
2014-Sep-15 03:04N 36°40' W 001°06'5 7.4
2014-Sep-15 02:24N 36°42' W 000°60'14 7.1
2014-Sep-15 00:23N 36°46' W 000°43'23 7.3
2014-Sep-14 21:15N 36°52' W 000°15'6 7.8
2014-Sep-14 20:32N 36°53' W 000°08'8 8.0
2014-Sep-14 19:33N 36°55' E 000°01'8 8.4
2014-Sep-14 18:33N 36°57' E 000°11'8 8.2
2014-Sep-14 17:33N 36°59' E 000°21'8 8.1
2014-Sep-14 16:34N 37°02' E 000°31'8 7.7
2014-Sep-14 15:33N 37°04' E 000°40'7 7.3
2014-Sep-14 14:34N 37°06' E 000°49'7 6.9
2014-Sep-14 13:32N 37°07' E 000°58'7 7.0
2014-Sep-14 12:32N 37°09' E 001°06'7 7.5
2014-Sep-14 11:33N 37°11' E 001°15'8 7.9
2014-Sep-14 10:33N 37°13' E 001°24'9 8.8
2014-Sep-14 09:33N 37°16' E 001°35'9 9.0
2014-Sep-14 08:33N 37°18' E 001°46'10 9.6
2014-Sep-14 07:32N 37°21' E 001°58'10 9.7
2014-Sep-14 06:33N 37°23' E 002°09'10 9.9
2014-Sep-14 05:32N 37°26' E 002°22'74 9.3
2014-Sep-13 21:33N 37°45' E 003°52'9 9.4
2014-Sep-13 20:34N 37°48' E 004°03'200 8.5
2014-Sep-12 21:04N 38°40' E 008°09'7 8.9
2014-Sep-12 20:14N 38°42' E 008°18'8 8.9
2014-Sep-12 19:18N 38°45' E 008°28'7 8.8
2014-Sep-12 18:31N 38°46' E 008°37'8 8.4
2014-Sep-12 17:33N 38°48' E 008°47'8 8.0
2014-Sep-12 16:32N 38°51' E 008°57'8 7.9
2014-Sep-12 15:33N 38°53' E 009°07'8 8.1
2014-Sep-12 14:33N 38°55' E 009°17'8 8.1
2014-Sep-12 13:33N 38°57' E 009°27'8 7.9
2014-Sep-12 12:33N 38°60' E 009°36'8 8.1
2014-Sep-12 11:33N 39°03' E 009°46'196 8.5
2014-Sep-11 12:25N 40°29' E 013°35'7 8.3
2014-Sep-11 11:31N 40°32' E 013°44'8 8.4
2014-Sep-11 10:33N 40°36' E 013°53'8 8.4
2014-Sep-11 09:34N 40°40' E 014°03'8 7.7
2014-Sep-11 08:33N 40°47' E 014°07'3 0.2
2014-Sep-10 19:30N 40°50' E 014°06'0 0.0
2014-Sep-10 14:06N 40°50' E 014°06'0 0.0
2014-Sep-10 13:30N 40°50' E 014°06'0 0.0
2014-Sep-10 12:30N 40°50' E 014°06'0 0.0
2014-Sep-10 11:30N 40°50' E 014°06'0 0.0
2014-Sep-10 10:30N 40°50' E 014°06'0 0.0
2014-Sep-10 08:18N 40°50' E 014°06'0 0.0
2014-Sep-09 19:29N 40°50' E 014°06'0 0.0
2014-Sep-09 13:29N 40°50' E 014°06'0 0.0
2014-Sep-09 12:29N 40°50' E 014°06'0 0.0
2014-Sep-09 11:30N 40°50' E 014°06'0 0.0
2014-Sep-08 19:29N 40°50' E 014°06'0 0.0
2014-Sep-08 18:29N 40°50' E 014°06'0 0.0
2014-Sep-08 09:23N 40°50' E 014°06'0 0.0
2014-Sep-08 08:30N 40°50' E 014°06'  

Dump ship's entire track history